Arnold Palmer Regional Airport
KLBE : now visible

Airfield :











YOU CAN JOIN US ON...

 
LOGIN :

Register | Disclaimer

   EN    FR    IT 

 









Legend :    VFR   Marginal VFR   IFR   Intensive IFR   Very Intensive IFR
Visi :
Ceiling :
>= 8 km
>= 3000ft
5 to 8 km
1000 to 3000 ft
1500m to 5 km
500 to 1000 ft
800 to 1500m
200 to 500 ft
< 800m
< 200 ft
Symbols :   Thunderstorms  Fog  Heavy snow  Heavy precipitations  Wind > 20 kt






- Airport Elevation : 1199 ft
- IATA code : LBE


KLBE - Arnold Palmer Regional

CURRENT METAR :
  • 181055Z AUTO VRB04G19KT 10SM CLR M02/M06 A3028 RMK AO2

EXPIRED METARs :
  • 181035Z AUTO 12008G19KT 8SM FEW026 M03/M05 A3029 RMK AO2
  • 181015Z AUTO 09011G19KT 7SM SCT025 SCT048 BKN070 M03/M05 A3029 RMK AO2
  • 180955Z AUTO 05005G19KT 6SM -SN FEW005 SCT025 BKN045 M03/M05 A3030 RMK AO2
  • 180935Z AUTO 05014KT 2SM -SN FEW001 BKN014 OVC090 M03/M06 A3033 RMK AO2
  • 180915Z AUTO 09008KT 3SM -UP BKN018 BKN030 OVC080 M02/M08 A3039 RMK AO2
  • 180855Z AUTO 11004KT 10SM SCT025 BKN029 OVC034 M01/M11 A3043 RMK AO2
  • 180835Z AUTO 00000KT 10SM BKN033 BKN041 BKN047 M01/M11 A3045 RMK AO2
  • 180815Z AUTO 00000KT 10SM FEW032 SCT040 SCT048 M01/M11 A3046 RMK AO2

TAF KLBE
Valid from the 18 at 10:00 until the 19 at 06:00 UTC


181000Z 1810/1906 07012KT P6SM SCT008 OVC025
TEMPO 1811/1812 BKN008
FM181200 14010G20KT P6SM OVC035
FM181500 17015G25KT 2SM -FZRASN OVC010
FM181700 17015G25KT 3SM -RA OVC015 WS020/20045KT
FM190000 23015G30KT P6SM OVC015



MET'MAP, your aeronautical weather chart ! - Copyright ORBIFLY December 2007 - Disclaimer

ORBIFLY MET'MAP TEAM :

Programming & Development : Alexandra Zaïnal
Concept & original design : Baudouin d'Aumeries
Assistance for programming : Marc-Olivier Méhu
Technical & hardware support : Manuel Goepfert

Contact : metmap@orbifly.com




SOURCES & CREDITS :

   NOAA       Earth
Advisory